createdAt,value
2018-12-27T00:00:54.976Z,11.70
2018-12-27T00:05:00.662Z,11.43
2018-12-27T00:09:07.967Z,11.17
2018-12-27T00:13:13.662Z,11.43
2018-12-27T00:17:19.457Z,12.00
2018-12-27T00:21:25.153Z,12.27
2018-12-27T00:25:30.845Z,12.10
2018-12-27T00:29:36.547Z,12.60
2018-12-27T00:33:42.424Z,13.03
2018-12-27T00:37:48.329Z,11.57
2018-12-27T00:41:54.245Z,11.93
2018-12-27T00:46:01.803Z,11.13
2018-12-27T00:50:07.674Z,11.50
2018-12-27T00:54:13.578Z,12.30
2018-12-27T00:58:29.629Z,11.47
2018-12-27T01:02:47.488Z,12.33
2018-12-27T01:07:30.313Z,11.37
2018-12-27T01:16:41.454Z,11.53
2018-12-27T01:20:59.084Z,11.73
2018-12-27T01:35:12.449Z,12.33
2018-12-27T02:19:23.917Z,11.67
2018-12-27T02:39:44.737Z,11.50
2018-12-27T03:19:12.659Z,11.00
2018-12-27T03:34:36.768Z,9.90
2018-12-27T03:58:35.900Z,9.67
2018-12-27T04:17:45.679Z,9.23
2018-12-27T04:22:10.719Z,10.20
2018-12-27T04:31:04.332Z,9.57
2018-12-27T04:35:16.801Z,9.73
2018-12-27T04:39:22.632Z,10.10
2018-12-27T04:43:29.151Z,9.70
2018-12-27T04:47:35.090Z,9.80
2018-12-27T04:51:40.845Z,11.13
2018-12-27T04:55:46.591Z,9.60
2018-12-27T04:59:53.729Z,10.90
2018-12-27T05:03:59.589Z,10.17
2018-12-27T05:08:10.781Z,10.30
2018-12-27T05:12:16.508Z,10.20
2018-12-27T05:16:22.303Z,10.67
2018-12-27T05:20:28.140Z,10.30
2018-12-27T05:24:33.930Z,9.67
2018-12-27T05:28:39.684Z,8.90
2018-12-27T05:32:45.447Z,9.60
2018-12-27T05:36:51.298Z,9.80
2018-12-27T05:40:57.080Z,9.17
2018-12-27T05:45:03.147Z,9.37
2018-12-27T05:49:14.773Z,9.93
2018-12-27T05:53:20.504Z,9.23
2018-12-27T05:57:26.507Z,9.30
2018-12-27T06:01:32.680Z,8.43
2018-12-27T06:05:38.542Z,9.23
2018-12-27T06:09:45.985Z,9.17
2018-12-27T06:13:53.713Z,9.33
2018-12-27T06:17:59.415Z,9.30
2018-12-27T06:22:11.441Z,9.90
2018-12-27T06:26:17.157Z,9.03
2018-12-27T06:30:22.960Z,9.20
2018-12-27T06:34:28.793Z,9.60
2018-12-27T06:38:34.669Z,9.10
2018-12-27T06:42:40.390Z,8.37
2018-12-27T06:46:46.219Z,12.13
2018-12-27T06:50:52.085Z,9.60
2018-12-27T06:54:57.826Z,9.10
2018-12-27T06:59:03.817Z,9.27
2018-12-27T07:03:13.778Z,7.97
2018-12-27T07:07:19.508Z,8.40
2018-12-27T07:11:25.247Z,8.27
2018-12-27T07:15:31.137Z,8.10
2018-12-27T07:19:37.020Z,7.93
2018-12-27T07:23:43.052Z,8.50
2018-12-27T07:27:50.437Z,8.87
2018-12-27T07:31:56.243Z,8.10
2018-12-27T07:36:02.086Z,8.58
2018-12-27T07:40:14.304Z,8.40
2018-12-27T07:44:20.074Z,8.40
2018-12-27T07:48:27.992Z,8.50
2018-12-27T07:52:40.541Z,8.10
2018-12-27T07:56:51.687Z,8.27
2018-12-27T08:00:57.476Z,8.60
2018-12-27T08:09:20.819Z,9.57
2018-12-27T08:13:26.562Z,8.30
2018-12-27T08:17:35.341Z,8.70
2018-12-27T08:21:41.103Z,8.65
2018-12-27T08:25:47.356Z,8.13
2018-12-27T08:29:53.178Z,7.57
2018-12-27T08:33:58.991Z,8.43
2018-12-27T08:38:04.950Z,8.00
2018-12-27T08:42:16.615Z,7.53
2018-12-27T08:46:22.438Z,8.23
2018-12-27T08:50:28.258Z,7.43
2018-12-27T08:54:34.253Z,8.23
2018-12-27T08:58:40.032Z,8.80
2018-12-27T09:02:45.710Z,7.90
2018-12-27T09:06:51.580Z,8.27
2018-12-27T09:10:57.708Z,8.80
2018-12-27T09:15:13.429Z,8.83
2018-12-27T09:19:19.254Z,9.00
2018-12-27T09:23:25.084Z,9.13
2018-12-27T09:27:30.993Z,8.90
2018-12-27T09:31:36.998Z,8.40
2018-12-27T09:35:42.818Z,8.77
2018-12-27T09:39:51.520Z,8.47
2018-12-27T10:04:53.652Z,7.70
2018-12-27T10:08:59.400Z,7.50
2018-12-27T10:13:05.264Z,7.27
2018-12-27T10:17:16.865Z,7.43
2018-12-27T10:21:22.596Z,7.97
2018-12-27T10:25:28.269Z,8.10
2018-12-27T10:29:33.991Z,7.27
2018-12-27T10:33:39.827Z,7.43
2018-12-27T10:37:45.570Z,7.93
2018-12-27T10:41:51.284Z,11.07
2018-12-27T10:45:57.069Z,11.73
2018-12-27T10:50:04.767Z,11.83
2018-12-27T10:54:15.166Z,11.27
2018-12-27T10:58:20.888Z,11.77
2018-12-27T11:02:26.623Z,11.37
2018-12-27T11:06:32.350Z,11.27
2018-12-27T11:10:38.176Z,12.13
2018-12-27T11:15:03.288Z,11.87
2018-12-27T11:19:13.466Z,11.60
2018-12-27T11:23:19.315Z,11.63
2018-12-27T11:27:25.074Z,10.33
2018-12-27T11:31:30.835Z,13.07
2018-12-27T11:35:36.545Z,12.67
2018-12-27T11:39:42.284Z,12.57
2018-12-27T11:43:48.057Z,12.87
2018-12-27T11:47:53.782Z,13.07
2018-12-27T11:51:59.503Z,12.97
2018-12-27T11:56:05.333Z,11.93
2018-12-27T12:00:16.582Z,12.97
2018-12-27T12:04:22.327Z,12.80
2018-12-27T12:08:28.086Z,13.23
2018-12-27T12:12:33.812Z,11.77
2018-12-27T12:16:39.577Z,12.80
2018-12-27T12:20:45.307Z,12.47
2018-12-27T12:24:51.021Z,11.90
2018-12-27T12:28:56.777Z,13.47
2018-12-27T12:33:02.580Z,12.97
2018-12-27T12:37:14.212Z,12.90
2018-12-27T12:41:19.502Z,11.97
2018-12-27T12:45:25.232Z,12.40
2018-12-27T12:49:30.922Z,12.17
2018-12-27T12:53:36.655Z,12.47
2018-12-27T12:57:42.427Z,12.37
2018-12-27T13:01:48.107Z,10.43
2018-12-27T13:05:53.837Z,11.00
2018-12-27T13:09:59.609Z,11.23
2018-12-27T13:14:05.367Z,10.90
2018-12-27T13:18:17.883Z,11.50
2018-12-27T13:22:23.792Z,11.40
2018-12-27T13:26:29.498Z,10.60
2018-12-27T13:30:35.216Z,11.67
2018-12-27T13:34:40.979Z,11.83
2018-12-27T13:38:46.723Z,11.37
2018-12-27T13:42:52.476Z,11.73
2018-12-27T13:46:58.330Z,10.87
2018-12-27T13:51:04.120Z,10.23
2018-12-27T13:55:17.207Z,10.70
2018-12-27T13:59:22.886Z,11.53
2018-12-27T14:03:28.616Z,12.10
2018-12-27T14:07:34.361Z,12.47
2018-12-27T14:11:40.094Z,13.53
2018-12-27T14:15:45.814Z,11.20
2018-12-27T14:19:51.544Z,12.43
2018-12-27T14:23:57.351Z,12.10
2018-12-27T14:28:03.055Z,11.50
2018-12-27T14:32:14.652Z,13.10
2018-12-27T14:36:20.482Z,11.77
2018-12-27T14:40:26.183Z,12.07
2018-12-27T14:44:31.937Z,11.50
2018-12-27T14:48:54.645Z,12.57
2018-12-27T14:53:00.534Z,12.67
2018-12-27T15:12:00.375Z,12.00
2018-12-27T15:16:21.744Z,12.20
2018-12-27T15:20:46.822Z,20.20
2018-12-27T15:25:11.507Z,12.87
2018-12-27T15:29:29.374Z,12.83
2018-12-27T15:33:54.534Z,14.13
2018-12-27T15:38:12.478Z,14.03
2018-12-27T15:42:55.788Z,14.23
2018-12-27T15:47:13.502Z,14.47
2018-12-27T15:52:34.593Z,12.20
2018-12-27T15:56:52.250Z,13.83
2018-12-27T16:06:16.360Z,13.58
2018-12-27T16:10:53.097Z,13.27
2018-12-27T16:15:18.147Z,12.97
2018-12-27T16:19:55.021Z,14.23
2018-12-27T16:24:20.066Z,13.30
2018-12-27T16:28:50.244Z,14.40
2018-12-27T16:33:08.476Z,14.87
2018-12-27T16:48:05.511Z,12.77
2018-12-27T16:52:48.335Z,13.97
2018-12-27T17:02:12.714Z,13.93
2018-12-27T17:06:57.079Z,13.23
2018-12-27T17:22:06.210Z,14.93
2018-12-27T17:31:58.653Z,15.77
2018-12-27T17:36:16.269Z,15.73
2018-12-27T17:40:59.029Z,13.37
2018-12-27T17:45:16.628Z,13.10
2018-12-27T17:50:24.280Z,12.57
2018-12-27T17:54:49.352Z,13.10
2018-12-27T17:59:05.395Z,15.07
2018-12-27T18:03:49.790Z,13.55
2018-12-27T18:08:08.036Z,14.30
2018-12-27T18:12:52.469Z,14.27
2018-12-27T18:16:58.184Z,15.30
2018-12-27T18:21:04.011Z,15.53
2018-12-27T18:25:09.740Z,16.33
2018-12-27T18:29:15.446Z,14.50
2018-12-27T18:33:21.200Z,14.73
2018-12-27T18:37:50.780Z,15.17
2018-12-27T18:41:56.496Z,15.73
2018-12-27T18:46:02.182Z,14.23
2018-12-27T18:50:07.940Z,14.63
2018-12-27T18:54:13.618Z,14.40
2018-12-27T18:58:49.354Z,15.07
2018-12-27T19:02:55.087Z,15.47
2018-12-27T19:07:00.854Z,15.03
2018-12-27T19:12:00.227Z,15.20
2018-12-27T19:16:05.960Z,15.45
2018-12-27T19:20:11.931Z,14.85
2018-12-27T19:24:17.654Z,15.17
2018-12-27T19:28:50.486Z,15.27
2018-12-27T19:32:56.206Z,16.53
2018-12-27T19:37:01.908Z,16.83
2018-12-27T19:41:07.612Z,15.90
2018-12-27T19:45:13.391Z,14.10
2018-12-27T19:49:19.114Z,14.90
2018-12-27T19:53:24.812Z,15.27
2018-12-27T19:57:30.526Z,14.33
2018-12-27T20:01:48.271Z,14.17
2018-12-27T20:24:46.721Z,14.33
2018-12-27T20:29:49.097Z,15.27
2018-12-27T20:33:54.802Z,15.23
2018-12-27T20:38:48.773Z,15.10
2018-12-27T20:42:54.505Z,15.13
2018-12-27T20:51:49.848Z,15.20
2018-12-27T20:55:55.628Z,15.17
2018-12-27T21:00:01.330Z,15.93
2018-12-27T21:04:07.137Z,20.50
2018-12-27T21:08:49.153Z,16.67
2018-12-27T21:12:54.834Z,15.57
2018-12-27T21:17:00.559Z,15.37
2018-12-27T21:21:06.255Z,15.53
2018-12-27T21:25:12.054Z,15.93
2018-12-27T21:29:17.716Z,15.37
2018-12-27T21:33:23.405Z,15.77
2018-12-27T21:38:00.531Z,15.60
2018-12-27T21:43:04.137Z,16.40
2018-12-27T21:47:21.742Z,16.20
2018-12-27T21:51:46.784Z,15.87
2018-12-27T21:56:04.353Z,15.10
2018-12-27T22:00:29.396Z,16.10
2018-12-27T22:04:45.352Z,15.70
2018-12-27T22:09:10.398Z,17.37
2018-12-27T22:13:28.231Z,16.60
2018-12-27T22:17:53.285Z,16.50
2018-12-27T22:22:10.985Z,15.90
2018-12-27T22:26:37.618Z,16.03
2018-12-27T22:31:04.514Z,16.13
2018-12-27T22:35:29.627Z,17.07
2018-12-27T22:39:50.237Z,15.50
2018-12-27T22:44:27.324Z,16.30
2018-12-27T22:48:52.380Z,15.43
2018-12-27T22:53:10.032Z,15.03
2018-12-27T23:02:51.051Z,16.00
2018-12-27T23:12:53.333Z,15.50
2018-12-27T23:17:10.901Z,16.23
2018-12-27T23:21:37.017Z,16.57
2018-12-27T23:25:57.642Z,16.90
2018-12-27T23:30:22.749Z,17.30
2018-12-27T23:34:40.465Z,17.60
2018-12-27T23:39:26.300Z,17.67
2018-12-27T23:43:50.529Z,17.20
2018-12-27T23:48:08.777Z,17.25
2018-12-27T23:52:26.400Z,17.50
2018-12-27T23:56:52.550Z,16.17
